Time;durP1;ratioP1;P1;durP2;ratioP2;P2;SDS_P1;SDS_P2;PMS_P1;PMS_P2;Temp;Humidity;BMP_temperature;BMP_pressure;BME280_temperature;BME280_humidity;BME280_pressure;Samples;Min_cycle;Max_cycle;Signal;HPM_P1;HPM_P2
2023/12/26 00:01:54;;;;;;;43.40;28.40;;;;;;;11.08;73.42;101109.84;5084389;28;20048;-84
2023/12/26 00:04:46;;;;;;;45.58;28.17;;;;;;;11.23;73.58;101113.28;5086408;28;20040;-85
2023/12/26 00:07:41;;;;;;;48.47;29.85;;;;;;;11.25;73.26;101105.63;5085622;28;20040;-84
2023/12/26 00:10:36;;;;;;;60.00;30.97;;;;;;;11.32;71.94;101104.09;5086193;28;20040;-85
2023/12/26 00:13:28;;;;;;;53.25;29.13;;;;;;;11.41;71.97;101102.22;5091087;28;20060;-84
2023/12/26 00:16:17;;;;;;;42.53;27.88;;;;;;;11.31;72.42;101107.94;5085770;28;20048;-85
2023/12/26 00:19:12;;;;;;;49.67;28.40;;;;;;;11.31;71.85;101096.22;5090561;28;20032;-85
2023/12/26 00:22:06;;;;;;;44.60;28.25;;;;;;;11.39;72.00;101096.28;5086972;28;20044;-85
2023/12/26 00:25:01;;;;;;;41.00;24.43;;;;;;;11.38;71.73;101096.59;5084718;28;20040;-84
2023/12/26 00:27:55;;;;;;;49.63;27.63;;;;;;;11.48;71.32;101101.78;5089564;28;20055;-84
2023/12/26 00:30:46;;;;;;;46.28;27.98;;;;;;;11.58;70.87;101104.22;5083632;28;20772;-84
2023/12/26 00:33:38;;;;;;;42.67;27.42;;;;;;;11.55;71.00;101100.22;5072141;28;20048;-84
2023/12/26 00:36:32;;;;;;;49.42;28.38;;;;;;;11.53;71.04;101110.63;5090322;28;20040;-85
2023/12/26 00:39:27;;;;;;;47.07;26.50;;;;;;;11.58;70.73;101101.50;5090019;28;20036;-84
2023/12/26 00:42:19;;;;;;;50.47;28.53;;;;;;;11.59;70.66;101103.13;5095712;28;20266;-85
2023/12/26 00:45:14;;;;;;;39.03;25.50;;;;;;;11.55;70.54;101108.41;5075748;28;20278;-84
2023/12/26 00:48:11;;;;;;;45.60;27.67;;;;;;;11.54;70.34;101105.97;5089104;28;20048;-85
2023/12/26 00:51:06;;;;;;;39.67;26.60;;;;;;;11.50;70.84;101105.00;5078144;28;20278;-85
2023/12/26 00:53:56;;;;;;;42.85;26.55;;;;;;;11.43;71.13;101099.19;5090032;28;20040;-85
2023/12/26 00:56:49;;;;;;;46.45;27.30;;;;;;;11.39;71.90;101101.72;5095091;28;20044;-85
2023/12/26 00:59:41;;;;;;;46.15;29.35;;;;;;;11.36;72.03;101098.84;5080265;28;20397;-85
2023/12/26 01:02:36;;;;;;;49.65;28.13;;;;;;;11.45;71.48;101096.97;5095313;28;20044;-85
2023/12/26 01:05:27;;;;;;;40.28;26.40;;;;;;;11.41;71.45;101101.44;5090377;28;20040;-85
2023/12/26 01:08:22;;;;;;;41.75;25.90;;;;;;;11.38;71.40;101099.31;5088929;28;20041;-85
2023/12/26 01:11:16;;;;;;;33.55;20.80;;;;;;;11.43;71.28;101105.44;5073577;28;20040;-85
2023/12/26 01:14:11;;;;;;;44.20;26.20;;;;;;;11.40;71.23;101102.53;5091680;28;20044;-84
2023/12/26 01:17:04;;;;;;;37.33;21.80;;;;;;;11.39;71.79;101100.91;5088937;28;20036;-84
2023/12/26 01:19:59;;;;;;;41.90;27.33;;;;;;;11.38;71.55;101107.47;5093807;28;20409;-85
2023/12/26 01:22:52;;;;;;;39.88;27.15;;;;;;;11.37;71.88;101105.88;5074582;28;20067;-85
2023/12/26 01:25:47;;;;;;;42.97;27.70;;;;;;;11.40;71.54;101105.25;5074078;28;20045;-84
2023/12/26 01:28:42;;;;;;;46.10;27.67;;;;;;;11.44;71.24;101117.94;5093107;28;20040;-85
2023/12/26 01:31:35;;;;;;;42.67;28.03;;;;;;;11.43;71.33;101110.06;5088927;28;20509;-84
2023/12/26 01:34:30;;;;;;;46.30;28.58;;;;;;;11.48;71.56;101118.91;5093533;28;20267;-85
2023/12/26 01:37:24;;;;;;;35.70;23.47;;;;;;;11.47;71.36;101116.53;5090405;28;20049;-83
2023/12/26 01:40:19;;;;;;;40.40;26.47;;;;;;;11.47;71.10;101117.34;5075686;28;20267;-84
2023/12/26 01:43:14;;;;;;;32.95;20.98;;;;;;;11.39;71.33;101118.06;5079170;28;20258;-85
2023/12/26 01:46:09;;;;;;;40.92;26.02;;;;;;;11.32;71.84;101115.00;5087663;28;20040;-84
2023/12/26 01:49:01;;;;;;;42.42;28.52;;;;;;;11.32;71.96;101112.28;5077678;28;20037;-85
2023/12/26 01:51:51;;;;;;;48.03;30.13;;;;;;;11.29;72.08;101114.78;5078598;28;20040;-84
2023/12/26 01:54:43;;;;;;;40.45;26.67;;;;;;;11.26;72.28;101112.69;5074967;28;20052;-85
2023/12/26 01:57:35;;;;;;;44.67;25.63;;;;;;;11.23;72.39;101114.09;5075631;28;20588;-85
2023/12/26 02:00:27;;;;;;;48.38;27.45;;;;;;;11.25;72.57;101116.53;5077793;28;20036;-84
2023/12/26 02:03:22;;;;;;;37.83;24.40;;;;;;;11.23;72.22;101116.81;5087389;28;20587;-85
2023/12/26 02:06:17;;;;;;;53.07;28.53;;;;;;;11.20;72.50;101116.66;5074237;28;20044;-84
2023/12/26 02:09:15;;;;;;;30.23;19.90;;;;;;;11.17;72.25;101109.91;5073286;28;20287;-84
2023/12/26 02:12:09;;;;;;;37.53;22.17;;;;;;;11.25;72.05;101111.09;5087164;28;20041;-84
2023/12/26 02:15:07;;;;;;;29.17;18.83;;;;;;;11.29;71.71;101109.34;5087705;28;20040;-84
2023/12/26 02:17:57;;;;;;;35.40;22.40;;;;;;;11.29;71.07;101103.91;5084663;28;20049;-85
2023/12/26 02:20:49;;;;;;;35.20;22.42;;;;;;;11.25;71.53;101103.72;5072297;28;20036;-84
2023/12/26 02:23:43;;;;;;;34.00;22.73;;;;;;;11.28;71.51;101108.53;5085966;28;20044;-85
2023/12/26 02:26:40;;;;;;;43.35;24.75;;;;;;;11.26;71.38;101099.09;5092426;28;20501;-85
2023/12/26 02:29:35;;;;;;;34.17;22.23;;;;;;;11.31;71.19;101105.22;5089587;28;20044;-85
2023/12/26 02:32:26;;;;;;;34.72;21.45;;;;;;;11.36;70.97;101101.56;5086590;28;20413;-84
2023/12/26 02:35:18;;;;;;;47.38;22.60;;;;;;;11.32;70.74;101103.28;5086760;28;20045;-84
2023/12/26 02:38:13;;;;;;;37.35;20.90;;;;;;;11.34;71.13;101098.31;5088634;28;20040;-84
2023/12/26 02:41:06;;;;;;;37.42;22.77;;;;;;;11.29;70.80;101106.63;5079089;28;20044;-85
2023/12/26 02:44:01;;;;;;;41.90;23.70;;;;;;;11.26;70.83;101104.53;5074705;28;20041;-84
2023/12/26 02:46:58;;;;;;;37.85;23.73;;;;;;;11.27;71.26;101098.78;5087315;28;20045;-83
2023/12/26 02:49:53;;;;;;;39.90;23.70;;;;;;;11.28;70.62;101091.41;5087091;28;20036;-84
2023/12/26 02:52:43;;;;;;;29.38;17.88;;;;;;;11.23;70.89;101086.88;5086161;28;20048;-85
2023/12/26 02:55:36;;;;;;;32.83;20.80;;;;;;;11.22;71.16;101081.78;5072115;28;20041;-84
2023/12/26 02:58:25;;;;;;;38.25;22.27;;;;;;;11.13;71.30;101079.78;5086218;28;20048;-85
2023/12/26 03:01:20;;;;;;;34.83;21.75;;;;;;;10.96;72.31;101087.03;5085204;28;20048;-85
2023/12/26 03:04:15;;;;;;;36.55;21.73;;;;;;;10.99;72.05;101079.03;5085650;28;20040;-85
2023/12/26 03:07:09;;;;;;;33.95;21.45;;;;;;;11.02;72.40;101075.69;5085992;28;20041;-85
2023/12/26 03:10:05;;;;;;;35.20;21.42;;;;;;;11.08;71.96;101076.38;5088803;28;20037;-85
2023/12/26 03:13:02;;;;;;;37.45;21.42;;;;;;;11.05;71.78;101066.94;5089663;28;20036;-85
2023/12/26 03:15:54;;;;;;;32.55;20.15;;;;;;;11.10;71.88;101080.41;5068089;28;20049;-85
2023/12/26 03:18:46;;;;;;;34.08;20.90;;;;;;;11.23;71.30;101083.34;5073113;28;20033;-85
2023/12/26 03:21:38;;;;;;;37.40;21.77;;;;;;;11.19;71.29;101082.38;5071400;28;20504;-85
2023/12/26 03:24:33;;;;;;;37.78;22.98;;;;;;;11.09;71.75;101077.97;5073229;28;20040;-85
2023/12/26 03:27:26;;;;;;;34.53;21.10;;;;;;;10.99;72.40;101084.47;5072499;28;20049;-85
2023/12/26 03:30:20;;;;;;;35.75;21.35;;;;;;;11.14;71.96;101073.22;5069815;28;20045;-85
2023/12/26 03:33:12;;;;;;;33.87;21.03;;;;;;;11.15;71.37;101079.47;5083997;28;20037;-85
2023/12/26 03:36:08;;;;;;;34.38;21.63;;;;;;;11.15;71.43;101083.00;5086988;28;20041;-85
2023/12/26 03:39:03;;;;;;;33.42;21.40;;;;;;;11.21;71.08;101080.97;5086034;28;20044;-85
2023/12/26 03:41:54;;;;;;;38.53;21.75;;;;;;;11.13;71.32;101073.53;5074262;28;20044;-85
2023/12/26 03:44:46;;;;;;;36.05;19.63;;;;;;;11.11;71.49;101067.59;5072906;28;20044;-84
2023/12/26 03:47:36;;;;;;;37.78;20.30;;;;;;;11.07;71.46;101070.13;5075972;28;20045;-85
2023/12/26 03:50:31;;;;;;;30.45;20.00;;;;;;;11.10;71.78;101066.81;5088285;28;20040;-85
2023/12/26 03:53:23;;;;;;;34.85;20.15;;;;;;;11.21;71.65;101069.28;5086235;28;20040;-84
2023/12/26 03:56:21;;;;;;;32.58;21.23;;;;;;;11.19;71.18;101071.47;5085069;28;20037;-84
2023/12/26 03:59:15;;;;;;;38.72;22.13;;;;;;;11.11;71.68;101076.56;5072356;28;20029;-85
2023/12/26 04:02:08;;;;;;;40.20;23.30;;;;;;;11.01;72.40;101073.31;5076972;28;20040;-84
2023/12/26 04:04:59;;;;;;;40.22;24.20;;;;;;;11.01;72.32;101076.81;5072999;28;20044;-85
2023/12/26 04:07:54;;;;;;;44.67;26.53;;;;;;;11.01;72.73;101076.03;5086068;28;20041;-84
2023/12/26 04:10:48;;;;;;;29.95;18.60;;;;;;;11.01;72.96;101076.81;5072677;28;20033;-85
2023/12/26 04:13:44;;;;;;;42.92;26.35;;;;;;;11.04;72.90;101070.75;5072226;28;20040;-85
2023/12/26 04:16:36;;;;;;;38.28;22.73;;;;;;;11.08;73.21;101077.19;5089643;28;20040;-85
2023/12/26 04:19:31;;;;;;;44.78;27.98;;;;;;;11.08;72.68;101068.22;5072816;28;20041;-85
2023/12/26 04:22:20;;;;;;;32.17;21.73;;;;;;;11.01;72.98;101063.22;5082753;28;20037;-84
2023/12/26 04:25:15;;;;;;;41.58;27.45;;;;;;;11.07;73.32;101067.41;5086677;28;20036;-84
2023/12/26 04:28:09;;;;;;;43.47;27.80;;;;;;;11.06;73.32;101063.09;5072229;28;20037;-85
2023/12/26 04:31:04;;;;;;;34.20;24.02;;;;;;;11.02;73.63;101062.09;5088432;28;20041;-85
2023/12/26 04:33:59;;;;;;;46.80;29.97;;;;;;;11.06;73.51;101059.56;5083023;28;20040;-84
2023/12/26 04:36:52;;;;;;;34.08;21.95;;;;;;;11.06;73.69;101063.09;5074273;28;20041;-85
2023/12/26 04:39:44;;;;;;;47.78;30.30;;;;;;;11.04;73.20;101054.41;5085730;28;20033;-84
2023/12/26 04:42:39;;;;;;;45.75;28.33;;;;;;;11.00;74.11;101058.06;5084471;28;20040;-85
2023/12/26 04:45:33;;;;;;;48.65;31.02;;;;;;;11.07;73.66;101056.50;5076689;28;20036;-85
2023/12/26 04:48:24;;;;;;;50.53;30.20;;;;;;;11.09;73.72;101051.56;5079506;28;20501;-85
2023/12/26 04:51:20;;;;;;;44.22;29.50;;;;;;;11.09;73.16;101061.66;5068505;28;20044;-84
2023/12/26 04:54:15;;;;;;;46.95;28.65;;;;;;;11.06;73.66;101056.84;5087380;28;20037;-84
2023/12/26 04:57:10;;;;;;;47.90;30.33;;;;;;;11.07;73.59;101067.41;5084000;28;20040;-85
2023/12/26 05:00:05;;;;;;;44.05;31.17;;;;;;;11.10;73.65;101058.63;5073384;28;20032;-85
2023/12/26 05:02:52;;;;;;;42.20;23.05;;;;;;;11.09;73.54;101061.66;5072352;28;20040;-85
2023/12/26 05:05:40;;;;;;;;;;;;;;;11.17;73.25;101065.56;5069530;28;20048;-83
2023/12/26 05:08:34;;;;;;;45.25;28.15;;;;;;;11.10;73.11;101064.06;5068023;28;19912;-85
2023/12/26 05:11:29;;;;;;;45.77;28.83;;;;;;;11.07;73.31;101067.41;5060751;28;20045;-85
2023/12/26 05:14:23;;;;;;;46.97;29.23;;;;;;;11.12;73.30;101070.00;5067073;28;20052;-85
2023/12/26 05:17:18;;;;;;;51.87;30.10;;;;;;;11.04;74.03;101067.22;5081488;28;20047;-85
2023/12/26 05:20:14;;;;;;;35.72;23.35;;;;;;;10.88;74.62;101065.97;5071675;28;20263;-84
2023/12/26 05:23:13;;;;;;;57.85;32.78;;;;;;;10.69;75.50;101061.53;5076888;28;20040;-85
2023/12/26 05:26:06;;;;;;;48.38;29.70;;;;;;;10.76;75.05;101071.97;5075083;28;20036;-85
2023/12/26 05:29:00;;;;;;;48.70;29.80;;;;;;;10.82;75.08;101070.72;5073143;28;20045;-85
2023/12/26 05:31:52;;;;;;;48.50;30.17;;;;;;;10.84;75.21;101068.53;5094111;28;20040;-85
2023/12/26 05:34:45;;;;;;;46.17;29.17;;;;;;;10.83;75.21;101069.63;5074616;28;20760;-85
2023/12/26 05:37:39;;;;;;;46.53;29.05;;;;;;;10.90;74.97;101075.47;5087368;28;20040;-83
2023/12/26 05:40:32;;;;;;;46.27;28.70;;;;;;;10.93;74.39;101074.00;5076218;28;20037;-85
2023/12/26 05:43:26;;;;;;;42.10;27.67;;;;;;;10.84;74.66;101065.00;5073052;28;20593;-85
2023/12/26 05:46:19;;;;;;;33.88;23.45;;;;;;;10.85;74.35;101066.59;5077038;28;20056;-83
2023/12/26 05:49:08;;;;;;;46.47;27.83;;;;;;;10.71;75.41;101067.47;5074890;28;20040;-83
2023/12/26 05:52:00;;;;;;;42.20;27.25;;;;;;;10.81;74.90;101074.59;5079041;28;20040;-84
2023/12/26 05:54:50;;;;;;;43.35;28.10;;;;;;;10.87;74.34;101075.28;5071100;28;20040;-84
2023/12/26 05:57:41;;;;;;;43.05;27.52;;;;;;;10.89;74.12;101073.84;5070334;28;20036;-85
2023/12/26 06:00:33;;;;;;;44.38;26.58;;;;;;;10.88;74.12;101068.69;5075701;28;20025;-84
2023/12/26 06:03:27;;;;;;;42.35;26.85;;;;;;;10.92;73.90;101075.16;5097512;28;20045;-84
2023/12/26 06:06:22;;;;;;;42.40;27.52;;;;;;;10.84;74.52;101084.03;5073899;28;20044;-84
2023/12/26 06:09:16;;;;;;;51.37;28.70;;;;;;;10.79;75.06;101084.97;5084150;28;20028;-84
2023/12/26 06:12:11;;;;;;;49.17;29.70;;;;;;;10.85;74.90;101083.75;5067522;28;20259;-84
2023/12/26 06:15:06;;;;;;;31.90;21.65;;;;;;;10.82;74.78;101089.78;5079915;28;20036;-84
2023/12/26 06:18:01;;;;;;;42.57;28.17;;;;;;;10.83;74.63;101090.59;5084177;28;20409;-84
2023/12/26 06:20:53;;;;;;;33.23;21.83;;;;;;;10.79;74.33;101074.06;5071976;28;20267;-85
2023/12/26 06:23:47;;;;;;;45.92;27.30;;;;;;;10.76;74.49;101082.88;5071093;28;20044;-84
2023/12/26 06:26:39;;;;;;;31.33;20.60;;;;;;;10.71;74.60;101083.78;5072302;28;20044;-85
2023/12/26 06:29:34;;;;;;;42.58;26.95;;;;;;;10.75;74.81;101077.72;5072024;28;20037;-85
2023/12/26 06:32:29;;;;;;;39.63;26.88;;;;;;;10.72;74.97;101079.13;5071577;28;20041;-84
2023/12/26 06:35:21;;;;;;;46.22;29.00;;;;;;;10.76;74.91;101080.16;5081654;28;20049;-85
2023/12/26 06:38:16;;;;;;;45.50;26.45;;;;;;;10.81;74.62;101081.94;5065796;28;20036;-85
2023/12/26 06:41:10;;;;;;;46.38;28.27;;;;;;;10.81;74.40;101082.75;5068875;28;20040;-85
2023/12/26 06:44:05;;;;;;;49.50;26.87;;;;;;;10.76;74.31;101085.59;5070108;28;20036;-84
2023/12/26 06:47:00;;;;;;;41.28;25.45;;;;;;;10.78;74.68;101093.41;5084132;28;20044;-85
2023/12/26 06:49:55;;;;;;;38.97;26.67;;;;;;;10.75;74.83;101097.56;5066984;28;20037;-84
2023/12/26 06:52:50;;;;;;;42.40;26.80;;;;;;;10.72;74.83;101098.16;5065051;28;20036;-85
2023/12/26 06:55:45;;;;;;;38.25;26.83;;;;;;;10.79;75.18;101095.84;5065757;28;20040;-85
2023/12/26 06:58:34;;;;;;;39.10;23.97;;;;;;;10.79;74.94;101087.69;5086771;28;20041;-84
2023/12/26 07:01:32;;;;;;;41.00;26.25;;;;;;;10.72;74.79;101084.56;5069145;28;20271;-85
2023/12/26 07:04:30;;;;;;;46.00;27.83;;;;;;;10.64;75.21;101104.34;5082207;28;20040;-87
2023/12/26 07:07:22;;;;;;;41.65;27.30;;;;;;;10.69;75.46;101102.31;5080238;28;20044;-86
2023/12/26 07:10:14;;;;;;;47.53;28.25;;;;;;;10.64;75.50;101115.22;5084104;28;20041;-84
2023/12/26 07:13:06;;;;;;;46.50;29.92;;;;;;;10.60;75.47;101111.50;5087926;28;20036;-84
2023/12/26 07:16:01;;;;;;;45.30;29.43;;;;;;;10.63;75.88;101108.16;5086521;28;20493;-83
2023/12/26 07:18:53;;;;;;;33.70;23.10;;;;;;;10.56;75.73;101118.69;5089418;28;20401;-83
2023/12/26 07:21:48;;;;;;;50.47;28.90;;;;;;;10.60;76.06;101122.38;5082515;28;20509;-84
2023/12/26 07:24:43;;;;;;;40.85;24.23;;;;;;;10.63;76.23;101114.41;5086452;28;20040;-83
2023/12/26 07:27:35;;;;;;;43.42;27.08;;;;;;;10.70;75.86;101119.44;5082208;28;20048;-81
2023/12/26 07:30:29;;;;;;;48.05;29.60;;;;;;;10.04;77.23;101125.41;5080564;28;20045;-80
2023/12/26 07:33:21;;;;;;;48.57;30.37;;;;;;;9.30;83.57;101136.22;5078643;28;20032;-80
2023/12/26 07:36:12;;;;;;;55.75;29.58;;;;;;;9.75;83.18;101126.47;5073339;28;20036;-80
2023/12/26 07:39:04;;;;;;;49.83;29.63;;;;;;;9.88;81.10;101133.84;5078687;28;20037;-80
2023/12/26 07:42:00;;;;;;;55.22;31.27;;;;;;;9.82;82.27;101134.25;5078046;28;20040;-80
2023/12/26 07:44:55;;;;;;;40.13;24.20;;;;;;;9.87;82.01;101145.00;5059530;28;20051;-81
2023/12/26 07:47:50;;;;;;;53.10;30.03;;;;;;;10.01;80.35;101140.38;5063061;28;20043;-79
2023/12/26 07:50:44;;;;;;;57.33;30.17;;;;;;;10.13;79.85;101148.88;5075440;28;20040;-79
2023/12/26 07:53:36;;;;;;;61.67;36.28;;;;;;;9.75;80.23;101148.19;5078760;28;20274;-79
2023/12/26 07:56:31;;;;;;;48.40;30.50;;;;;;;10.00;81.87;101148.88;5057817;28;20048;-80
2023/12/26 07:59:23;;;;;;;48.90;30.67;;;;;;;10.20;79.67;101157.47;5065243;28;20044;-79
2023/12/26 08:02:15;;;;;;;56.90;38.25;;;;;;;10.16;78.52;101161.88;5075468;28;20653;-79
2023/12/26 08:05:07;;;;;;;48.90;27.55;;;;;;;9.96;80.90;101164.13;5073462;28;20740;-80
2023/12/26 08:07:59;;;;;;;47.53;31.08;;;;;;;9.99;81.37;101164.34;5080312;28;20047;-80
2023/12/26 08:10:53;;;;;;;47.55;28.52;;;;;;;10.31;78.63;101162.69;5076104;28;20580;-80
2023/12/26 08:13:48;;;;;;;48.73;27.33;;;;;;;10.23;78.05;101172.34;5075648;28;20036;-80
2023/12/26 08:16:42;;;;;;;44.70;27.77;;;;;;;10.40;78.63;101169.84;5078844;28;20036;-80
2023/12/26 08:19:37;;;;;;;39.38;22.17;;;;;;;10.60;77.02;101165.91;5076120;28;20275;-80
2023/12/26 08:22:31;;;;;;;39.65;23.35;;;;;;;10.59;77.25;101172.44;5080360;28;20048;-80
2023/12/26 08:25:26;;;;;;;34.22;18.92;;;;;;;10.54;76.98;101167.09;5076089;28;20044;-81
2023/12/26 08:28:20;;;;;;;39.78;24.17;;;;;;;10.53;77.57;101177.19;5075902;28;20048;-81
2023/12/26 08:31:15;;;;;;;42.60;25.95;;;;;;;10.55;77.37;101176.88;5078856;28;20045;-80
2023/12/26 08:34:10;;;;;;;38.83;24.93;;;;;;;10.68;76.62;101178.78;5079339;28;20044;-79
2023/12/26 08:37:05;;;;;;;60.03;29.90;;;;;;;10.62;76.70;101179.97;5082248;28;20040;-82
2023/12/26 08:39:59;;;;;;;37.73;20.50;;;;;;;10.64;77.07;101194.91;5079575;28;20490;-82
2023/12/26 08:42:54;;;;;;;53.97;31.03;;;;;;;10.69;76.94;101189.34;5077331;28;20040;-82
2023/12/26 08:45:48;;;;;;;54.90;28.07;;;;;;;10.64;77.23;101196.81;5074240;28;20520;-83
2023/12/26 08:48:43;;;;;;;38.50;22.00;;;;;;;10.68;76.29;101200.53;5078497;28;20037;-81
2023/12/26 08:51:36;;;;;;;51.45;28.42;;;;;;;10.73;76.01;101203.94;5077557;28;20036;-82
2023/12/26 08:54:30;;;;;;;34.58;20.33;;;;;;;10.80;75.96;101195.38;5080405;28;20041;-82
2023/12/26 08:57:26;;;;;;;38.78;23.77;;;;;;;10.79;74.75;101207.38;5081188;28;20518;-82
2023/12/26 09:00:20;;;;;;;45.78;24.83;;;;;;;10.79;75.57;101207.38;5076652;28;20501;-83
2023/12/26 09:03:15;;;;;;;45.07;26.53;;;;;;;10.83;76.46;101213.81;5086560;28;20040;-82
2023/12/26 09:06:11;;;;;;;37.88;25.70;;;;;;;10.76;76.77;101218.88;5076337;28;20044;-82
2023/12/26 09:09:05;;;;;;;38.97;25.55;;;;;;;10.80;76.86;101216.34;5078721;28;20037;-83
2023/12/26 09:12:00;;;;;;;40.63;25.38;;;;;;;10.74;77.33;101218.34;5080581;28;20044;-83
2023/12/26 09:14:52;;;;;;;44.40;26.52;;;;;;;10.85;76.82;101219.75;5082496;28;20044;-84
2023/12/26 09:17:46;;;;;;;43.50;24.35;;;;;;;10.91;75.79;101220.47;5082193;28;20040;-83
2023/12/26 09:20:41;;;;;;;36.60;25.27;;;;;;;10.99;75.88;101225.19;5075053;28;20032;-83
2023/12/26 09:23:36;;;;;;;28.55;18.33;;;;;;;11.00;75.63;101232.22;5086280;28;20036;-84
2023/12/26 09:26:29;;;;;;;49.25;27.83;;;;;;;11.03;75.34;101232.41;5074981;28;20052;-83
2023/12/26 09:29:21;;;;;;;42.67;23.45;;;;;;;11.06;74.86;101236.47;5083934;28;20501;-83
2023/12/26 09:32:16;;;;;;;42.00;23.23;;;;;;;11.05;75.39;101235.66;5082102;28;20037;-85
2023/12/26 09:35:10;;;;;;;36.23;22.80;;;;;;;11.05;75.75;101229.41;5079962;28;20036;-84
2023/12/26 09:38:02;;;;;;;44.93;24.63;;;;;;;11.03;75.93;101235.13;5086237;28;20271;-84
2023/12/26 09:40:57;;;;;;;38.33;23.92;;;;;;;10.98;75.86;101235.25;5086571;28;20036;-83
2023/12/26 09:43:49;;;;;;;43.47;24.77;;;;;;;10.98;76.39;101237.16;5084690;28;20045;-83
2023/12/26 09:46:43;;;;;;;43.83;24.38;;;;;;;11.07;75.82;101240.81;5086044;28;20049;-84
2023/12/26 09:49:43;;;;;;;30.13;19.77;;;;;;;11.14;75.78;101246.63;5079997;28;20036;-83
2023/12/26 09:52:38;;;;;;;36.28;23.65;;;;;;;11.12;75.83;101248.84;5084147;28;20044;-83
2023/12/26 09:55:32;;;;;;;49.63;26.30;;;;;;;11.02;77.01;101252.56;5081414;28;20409;-83
2023/12/26 09:58:27;;;;;;;41.80;27.20;;;;;;;10.96;77.60;101253.81;5078241;28;20040;-82
2023/12/26 10:01:21;;;;;;;60.58;32.72;;;;;;;11.22;80.66;101251.34;5082467;28;20032;-83
2023/12/26 10:04:14;;;;;;;46.42;31.15;;;;;;;11.20;77.70;101248.13;5083232;28;20045;-83
2023/12/26 10:07:08;;;;;;;49.50;29.90;;;;;;;11.34;76.81;101239.91;5082916;28;20045;-82
2023/12/26 10:10:03;;;;;;;54.88;29.80;;;;;;;11.31;77.59;101249.50;5072577;28;20048;-82
2023/12/26 10:12:59;;;;;;;57.70;32.20;;;;;;;11.64;75.00;101238.38;5083296;28;20048;-84
2023/12/26 10:15:51;;;;;;;50.47;30.93;;;;;;;12.25;72.74;101243.13;5077669;28;20040;-84
2023/12/26 10:18:44;;;;;;;58.10;31.83;;;;;;;11.91;74.09;101232.84;5069452;28;20298;-83
2023/12/26 10:21:39;;;;;;;36.15;24.45;;;;;;;11.71;75.00;101228.69;5079359;28;20040;-83
2023/12/26 10:24:30;;;;;;;53.75;32.40;;;;;;;11.61;75.68;101234.38;5071301;28;20037;-83
2023/12/26 10:27:25;;;;;;;51.28;34.97;;;;;;;11.50;76.38;101238.44;5067978;28;20521;-83
2023/12/26 10:30:22;;;;;;;54.87;35.17;;;;;;;11.35;77.54;101231.44;5078082;28;20521;-84
2023/12/26 10:33:25;;;;;;;59.78;35.25;;;;;;;11.37;77.44;101231.13;5079034;28;20429;-83
2023/12/26 10:36:22;;;;;;;60.50;33.75;;;;;;;11.38;77.67;101225.38;5081504;28;20040;-84
2023/12/26 10:39:15;;;;;;;59.72;34.15;;;;;;;11.41;77.46;101226.69;5074818;28;20036;-84
2023/12/26 10:42:10;;;;;;;64.05;34.42;;;;;;;11.47;77.14;101226.25;5083676;28;20211;-84
2023/12/26 10:45:06;;;;;;;52.20;34.17;;;;;;;11.27;78.84;101213.13;5079629;28;20048;-84
2023/12/26 10:48:01;;;;;;;42.95;26.20;;;;;;;11.34;77.71;101224.38;5077610;28;20040;-84
2023/12/26 10:50:52;;;;;;;42.63;26.17;;;;;;;11.35;77.67;101212.38;5074062;28;20044;-83
2023/12/26 10:53:50;;;;;;;56.47;34.42;;;;;;;11.39;77.56;101218.81;5078958;28;20756;-83
2023/12/26 10:56:42;;;;;;;50.47;30.67;;;;;;;11.41;77.39;101213.88;5078870;28;20041;-84
2023/12/26 10:59:34;;;;;;;63.78;31.00;;;;;;;11.43;76.74;101210.81;5074761;28;20041;-83
2023/12/26 11:02:26;;;;;;;46.08;29.15;;;;;;;11.46;76.05;101202.88;5069681;28;20036;-84
2023/12/26 11:05:18;;;;;;;47.03;29.50;;;;;;;11.52;75.56;101204.34;5075895;28;20048;-84
2023/12/26 11:08:13;;;;;;;52.33;30.55;;;;;;;11.59;75.33;101201.97;5078925;28;20493;-83
2023/12/26 11:11:03;;;;;;;48.25;31.48;;;;;;;11.60;74.95;101202.78;5075928;28;20052;-83
2023/12/26 11:13:58;;;;;;;62.33;31.60;;;;;;;11.64;75.07;101198.31;5074196;28;20037;-83
2023/12/26 11:16:53;;;;;;;48.33;25.88;;;;;;;11.68;74.52;101190.38;5080013;28;20421;-84
2023/12/26 11:19:49;;;;;;;41.15;24.52;;;;;;;11.70;74.41;101194.38;5080923;28;20052;-84
2023/12/26 11:22:38;;;;;;;58.72;34.50;;;;;;;11.68;74.80;101193.91;5076961;28;20029;-83
2023/12/26 11:25:30;;;;;;;54.78;32.35;;;;;;;11.69;74.79;101195.47;5071981;28;20449;-84
2023/12/26 11:28:26;;;;;;;54.13;31.47;;;;;;;11.72;74.57;101191.34;5080473;28;20036;-83
2023/12/26 11:31:19;;;;;;;62.50;33.60;;;;;;;11.72;74.94;101189.44;5078884;28;20044;-83
2023/12/26 11:34:16;;;;;;;60.45;37.47;;;;;;;11.71;74.68;101184.28;5082278;28;20032;-83
2023/12/26 11:37:03;;;;;;;54.35;33.35;;;;;;;11.69;75.37;101183.78;5078702;28;20033;-83
2023/12/26 11:39:55;;;;;;;64.63;39.22;;;;;;;11.72;75.26;101180.44;5074230;28;20033;-83
2023/12/26 11:42:51;;;;;;;68.90;37.97;;;;;;;11.76;75.71;101185.00;5076081;28;20032;-83
2023/12/26 11:45:46;;;;;;;58.28;35.78;;;;;;;11.80;75.33;101180.50;5072325;28;20041;-83
2023/12/26 11:48:38;;;;;;;44.33;29.85;;;;;;;11.83;75.07;101177.19;5055158;28;20041;-83
2023/12/26 11:51:33;;;;;;;64.50;34.75;;;;;;;11.86;75.28;101173.03;5059813;28;20037;-84
2023/12/26 11:54:25;;;;;;;59.92;38.67;;;;;;;11.88;75.54;101171.59;5058356;28;20044;-83
2023/12/26 11:57:17;;;;;;;63.28;36.10;;;;;;;11.86;75.38;101162.13;5046146;28;20502;-83
2023/12/26 12:00:09;;;;;;;58.55;36.70;;;;;;;11.87;75.90;101161.81;5059500;28;20045;-83
2023/12/26 12:03:04;;;;;;;61.75;36.13;;;;;;;11.85;76.07;101164.03;5063089;28;20045;-83
2023/12/26 12:06:18;;;;;;;62.13;39.73;;;;;;;11.90;75.61;101150.28;5060185;28;20045;-83
2023/12/26 12:09:19;;;;;;;68.10;37.67;;;;;;;11.89;75.61;101159.56;5056712;28;20045;-84
2023/12/26 12:12:17;;;;;;;56.70;36.28;;;;;;;11.92;75.50;101153.50;5060613;28;20486;-83
2023/12/26 12:15:15;;;;;;;57.42;35.95;;;;;;;11.90;76.11;101147.56;5057761;28;20041;-83
2023/12/26 12:18:10;;;;;;;67.28;38.28;;;;;;;11.77;76.86;101153.09;5061063;28;20041;-83
2023/12/26 12:21:05;;;;;;;50.33;29.83;;;;;;;11.91;76.55;101148.34;5058947;28;20052;-83
2023/12/26 12:23:57;;;;;;;46.75;29.13;;;;;;;11.81;77.28;101144.00;5056703;28;20048;-83
2023/12/26 12:27:16;;;;;;;58.97;38.20;;;;;;;11.87;76.47;101150.91;5060737;28;20033;-84
2023/12/26 12:30:10;;;;;;;65.88;38.13;;;;;;;12.05;76.41;101149.06;5055640;28;20486;-83
2023/12/26 12:33:23;;;;;;;61.00;36.93;;;;;;;12.10;74.94;101139.94;5060652;28;20041;-83
2023/12/26 12:36:18;;;;;;;64.63;40.30;;;;;;;12.14;74.34;101146.38;5057038;28;20409;-83
2023/12/26 12:39:12;;;;;;;57.00;36.63;;;;;;;12.10;73.87;101139.94;5060650;28;20041;-83
2023/12/26 12:42:12;;;;;;;49.83;28.37;;;;;;;12.11;74.96;101141.53;5057777;28;20260;-83
2023/12/26 12:45:09;;;;;;;60.65;36.03;;;;;;;12.14;74.56;101143.66;5058290;28;20037;-84
2023/12/26 12:48:05;;;;;;;61.80;37.60;;;;;;;12.17;74.79;101140.28;5059237;28;20494;-84
2023/12/26 12:50:59;;;;;;;48.03;27.17;;;;;;;12.15;73.79;101131.63;5056040;28;20430;-83
2023/12/26 12:53:54;;;;;;;44.03;26.27;;;;;;;12.14;74.14;101127.31;5059548;28;20501;-83
2023/12/26 12:56:49;;;;;;;47.08;28.30;;;;;;;12.15;74.05;101132.41;5057937;28;20041;-83
2023/12/26 12:59:41;;;;;;;43.17;27.42;;;;;;;12.17;74.44;101126.66;5078579;28;20048;-83
2023/12/26 13:02:30;;;;;;;68.18;36.60;;;;;;;12.24;74.66;101125.06;5071959;28;20036;-83
2023/12/26 13:05:25;;;;;;;58.10;34.42;;;;;;;12.26;73.85;101122.03;5075722;28;20040;-83
2023/12/26 13:08:20;;;;;;;43.95;28.75;;;;;;;12.23;74.25;101126.22;5080395;28;20032;-83
2023/12/26 13:11:10;;;;;;;64.97;35.10;;;;;;;12.33;74.64;101125.13;5076787;28;20507;-83